RYR8274 LPFR-LPPR
Flight info
| Callsign | RYR8274 |
|---|---|
| Flight time | 0h 51m |
| Altitude | 30000 |
| Route | EVURA DCT DIGAL DCT PESUL |
| Aircraft | B738/M-SDE2E3FGHIRWXY/LB1 |
Departure
| Time | 2026-05-05 15:32 |
|---|---|
| Airport | Faro - Gago Coutinho International Airport (LPFR) |
Arrival
| Time | 2026-05-05 16:23 |
|---|---|
| Airport | Francisco de Sá Carneiro Airport (LPPR) |
| Time | Latitude | Longitude | Altitude | Speed | Heading |
|---|---|---|---|---|---|
| 2026-05-05 15:06 | 37.01871 | -7.96563 | 19 ft | 0 kts | 10° |
| 2026-05-05 15:22 | 37.01870 | -7.96563 | 19 ft | 2 kts | 10° |
| 2026-05-05 15:22 | 37.01846 | -7.96568 | 19 ft | 4 kts | 4° |
| 2026-05-05 15:22 | 37.01819 | -7.96568 | 19 ft | 4 kts | 351° |
| 2026-05-05 15:23 | 37.01795 | -7.96558 | 19 ft | 4 kts | 314° |
| 2026-05-05 15:23 | 37.01788 | -7.96545 | 23 ft | 1 kts | 281° |
| 2026-05-05 15:25 | 37.01789 | -7.96548 | 19 ft | 1 kts | 291° |
| 2026-05-05 15:25 | 37.01796 | -7.96547 | 21 ft | 1 kts | 13° |
| 2026-05-05 15:26 | 37.01796 | -7.96538 | 21 ft | 1 kts | 97° |
| 2026-05-05 15:26 | 37.01790 | -7.96514 | 19 ft | 5 kts | 106° |
| 2026-05-05 15:26 | 37.01778 | -7.96462 | 19 ft | 8 kts | 106° |
| 2026-05-05 15:26 | 37.01764 | -7.96386 | 19 ft | 9 kts | 101° |
| 2026-05-05 15:27 | 37.01752 | -7.96306 | 19 ft | 9 kts | 99° |
| 2026-05-05 15:27 | 37.01742 | -7.96228 | 20 ft | 9 kts | 99° |
| 2026-05-05 15:27 | 37.01730 | -7.96151 | 17 ft | 10 kts | 102° |
| 2026-05-05 15:27 | 37.01695 | -7.96084 | 17 ft | 10 kts | 154° |
| 2026-05-05 15:28 | 37.01628 | -7.96089 | 18 ft | 10 kts | 191° |
| 2026-05-05 15:28 | 37.01567 | -7.96082 | 20 ft | 10 kts | 133° |
| 2026-05-05 15:28 | 37.01543 | -7.95996 | 18 ft | 12 kts | 99° |
| 2026-05-05 15:28 | 37.01529 | -7.95892 | 17 ft | 12 kts | 103° |
| 2026-05-05 15:29 | 37.01463 | -7.95842 | 18 ft | 12 kts | 183° |
| 2026-05-05 15:29 | 37.01443 | -7.95846 | 20 ft | 0 kts | 190° |
| 2026-05-05 15:30 | 37.01442 | -7.95846 | 19 ft | 1 kts | 190° |
| 2026-05-05 15:30 | 37.01421 | -7.95851 | 19 ft | 5 kts | 190° |
| 2026-05-05 15:30 | 37.01387 | -7.95859 | 21 ft | 5 kts | 190° |
| 2026-05-05 15:30 | 37.01353 | -7.95869 | 20 ft | 5 kts | 212° |
| 2026-05-05 15:31 | 37.01348 | -7.95910 | 20 ft | 5 kts | 276° |
| 2026-05-05 15:31 | 37.01355 | -7.95956 | 21 ft | 9 kts | 281° |
| 2026-05-05 15:31 | 37.01398 | -7.96261 | 23 ft | 68 kts | 280° |
| 2026-05-05 15:31 | 37.01515 | -7.97094 | 20 ft | 125 kts | 281° |
| 2026-05-05 15:32 | 37.01697 | -7.98345 | 120 ft | 160 kts | 278° |
| 2026-05-05 15:32 | 37.01903 | -7.99676 | 887 ft | 155 kts | 280° |
| 2026-05-05 15:32 | 37.02105 | -8.01065 | 1315 ft | 174 kts | 283° |
| 2026-05-05 15:32 | 37.02333 | -8.02676 | 1662 ft | 198 kts | 283° |
| 2026-05-05 15:33 | 37.02577 | -8.04428 | 2171 ft | 207 kts | 283° |
| 2026-05-05 15:33 | 37.02828 | -8.06216 | 2763 ft | 210 kts | 283° |
| 2026-05-05 15:33 | 37.03081 | -8.08021 | 3394 ft | 212 kts | 283° |
| 2026-05-05 15:33 | 37.03343 | -8.09861 | 3941 ft | 216 kts | 285° |
| 2026-05-05 15:34 | 37.04006 | -8.11493 | 4545 ft | 211 kts | 320° |
| 2026-05-05 15:34 | 37.05305 | -8.12349 | 4954 ft | 221 kts | 348° |
| 2026-05-05 15:34 | 37.06893 | -8.12391 | 5271 ft | 239 kts | 4° |
| 2026-05-05 15:34 | 37.08612 | -8.12097 | 5707 ft | 255 kts | 8° |
| 2026-05-05 15:35 | 37.10369 | -8.11731 | 6482 ft | 258 kts | 8° |
| 2026-05-05 15:35 | 37.12157 | -8.11353 | 7185 ft | 263 kts | 7° |
| 2026-05-05 15:35 | 37.13976 | -8.10974 | 7895 ft | 267 kts | 7° |
| 2026-05-05 15:35 | 37.15808 | -8.10598 | 8554 ft | 273 kts | 7° |
| 2026-05-05 15:36 | 37.17694 | -8.10215 | 9302 ft | 275 kts | 7° |
| 2026-05-05 15:36 | 37.19598 | -8.09833 | 9806 ft | 277 kts | 6° |
| 2026-05-05 15:36 | 37.21514 | -8.09450 | 10020 ft | 280 kts | 6° |
| 2026-05-05 15:36 | 37.23453 | -8.09065 | 10026 ft | 283 kts | 7° |
| 2026-05-05 15:37 | 37.25405 | -8.08678 | 10028 ft | 283 kts | 6° |
| 2026-05-05 15:37 | 37.27339 | -8.08291 | 10086 ft | 284 kts | 6° |
| 2026-05-05 15:37 | 37.28658 | -8.08030 | 10157 ft | 296 kts | 5° |
| 2026-05-05 15:37 | 37.30769 | -8.07619 | 10344 ft | 317 kts | 6° |
| 2026-05-05 15:38 | 37.32999 | -8.07181 | 10666 ft | 331 kts | 6° |
| 2026-05-05 15:38 | 37.35307 | -8.06725 | 11214 ft | 337 kts | 6° |
| 2026-05-05 15:38 | 37.37616 | -8.06266 | 11957 ft | 338 kts | 6° |
| 2026-05-05 15:38 | 37.39944 | -8.05802 | 12620 ft | 343 kts | 6° |
| 2026-05-05 15:39 | 37.42299 | -8.05335 | 13303 ft | 346 kts | 6° |
| 2026-05-05 15:39 | 37.44680 | -8.04863 | 14006 ft | 350 kts | 6° |
| 2026-05-05 15:39 | 37.47090 | -8.04385 | 14676 ft | 353 kts | 6° |
| 2026-05-05 15:39 | 37.49515 | -8.03903 | 15322 ft | 357 kts | 6° |
| 2026-05-05 15:40 | 37.51889 | -8.03432 | 15928 ft | 361 kts | 6° |
| 2026-05-05 15:40 | 37.54453 | -8.02922 | 16556 ft | 366 kts | 6° |
| 2026-05-05 15:40 | 37.56884 | -8.02439 | 17170 ft | 370 kts | 6° |
| 2026-05-05 15:40 | 37.59526 | -8.01916 | 17828 ft | 374 kts | 5° |
| 2026-05-05 15:41 | 37.62110 | -8.01535 | 18423 ft | 378 kts | 2° |
| 2026-05-05 15:41 | 37.64745 | -8.01281 | 18964 ft | 381 kts | 1° |
| 2026-05-05 15:41 | 37.67389 | -8.01069 | 19535 ft | 384 kts | 0° |
| 2026-05-05 15:41 | 37.70063 | -8.00860 | 20086 ft | 387 kts | 0° |
| 2026-05-05 15:42 | 37.72761 | -8.00641 | 20637 ft | 390 kts | 0° |
| 2026-05-05 15:42 | 37.75483 | -8.00410 | 21178 ft | 394 kts | 0° |
| 2026-05-05 15:42 | 37.78233 | -8.00168 | 21705 ft | 397 kts | 0° |
| 2026-05-05 15:42 | 37.81001 | -7.99918 | 22222 ft | 401 kts | 0° |
| 2026-05-05 15:43 | 37.83795 | -7.99662 | 22738 ft | 404 kts | 0° |
| 2026-05-05 15:43 | 37.86610 | -7.99402 | 23241 ft | 407 kts | 0° |
| 2026-05-05 15:43 | 37.89448 | -7.99138 | 23712 ft | 411 kts | 0° |
| 2026-05-05 15:43 | 37.92274 | -7.98876 | 24136 ft | 414 kts | 360° |
| 2026-05-05 15:44 | 37.95146 | -7.98608 | 24629 ft | 414 kts | 359° |
| 2026-05-05 15:44 | 37.98067 | -7.98335 | 25073 ft | 417 kts | 359° |
| 2026-05-05 15:44 | 38.00973 | -7.98065 | 25442 ft | 421 kts | 359° |
| 2026-05-05 15:44 | 38.03863 | -7.97796 | 25854 ft | 423 kts | 359° |
| 2026-05-05 15:45 | 38.06831 | -7.97518 | 26396 ft | 421 kts | 358° |
| 2026-05-05 15:45 | 38.09708 | -7.97247 | 26963 ft | 419 kts | 358° |
| 2026-05-05 15:45 | 38.12614 | -7.96974 | 27477 ft | 419 kts | 358° |
| 2026-05-05 15:45 | 38.15526 | -7.96702 | 27953 ft | 420 kts | 357° |
| 2026-05-05 15:46 | 38.18437 | -7.96430 | 28447 ft | 419 kts | 357° |
| 2026-05-05 15:46 | 38.21343 | -7.96157 | 28958 ft | 419 kts | 356° |
| 2026-05-05 15:46 | 38.24242 | -7.95885 | 29452 ft | 418 kts | 356° |
| 2026-05-05 15:46 | 38.27144 | -7.95613 | 29938 ft | 418 kts | 356° |
| 2026-05-05 15:47 | 38.30054 | -7.95342 | 30012 ft | 421 kts | 356° |
| 2026-05-05 15:47 | 38.35876 | -7.94794 | 30028 ft | 418 kts | 356° |
| 2026-05-05 15:48 | 38.41668 | -7.94248 | 30033 ft | 418 kts | 356° |
| 2026-05-05 15:48 | 38.47472 | -7.93701 | 30020 ft | 418 kts | 356° |
| 2026-05-05 15:49 | 38.53266 | -7.93154 | 30033 ft | 417 kts | 356° |
| 2026-05-05 15:49 | 38.59026 | -7.92608 | 30017 ft | 416 kts | 356° |
| 2026-05-05 15:50 | 38.64782 | -7.92063 | 30036 ft | 415 kts | 356° |
| 2026-05-05 15:50 | 38.70500 | -7.91903 | 30032 ft | 407 kts | 349° |
| 2026-05-05 15:51 | 38.76124 | -7.92360 | 30017 ft | 404 kts | 348° |
| 2026-05-05 15:51 | 38.81686 | -7.92834 | 30019 ft | 403 kts | 348° |
| 2026-05-05 15:52 | 38.87284 | -7.93246 | 30036 ft | 403 kts | 349° |
| 2026-05-05 15:52 | 38.92889 | -7.93624 | 30024 ft | 404 kts | 349° |
| 2026-05-05 15:53 | 38.98504 | -7.93992 | 30024 ft | 404 kts | 349° |
| 2026-05-05 15:53 | 39.04128 | -7.94360 | 30021 ft | 405 kts | 349° |
| 2026-05-05 15:54 | 39.09756 | -7.94730 | 30048 ft | 405 kts | 350° |
| 2026-05-05 15:54 | 39.15396 | -7.95101 | 30023 ft | 406 kts | 350° |
| 2026-05-05 15:55 | 39.21033 | -7.95471 | 30020 ft | 406 kts | 350° |
| 2026-05-05 15:55 | 39.26668 | -7.95843 | 30024 ft | 405 kts | 350° |
| 2026-05-05 15:56 | 39.32296 | -7.96215 | 30044 ft | 405 kts | 350° |
| 2026-05-05 15:56 | 39.37895 | -7.96586 | 30019 ft | 403 kts | 350° |
| 2026-05-05 15:57 | 39.43477 | -7.96956 | 30020 ft | 402 kts | 350° |
| 2026-05-05 15:57 | 39.49035 | -7.97325 | 30022 ft | 401 kts | 350° |
| 2026-05-05 15:58 | 39.54598 | -7.97696 | 30045 ft | 400 kts | 351° |
| 2026-05-05 15:58 | 39.60153 | -7.98066 | 30027 ft | 397 kts | 351° |
| 2026-05-05 15:58 | 39.62876 | -7.98244 | 30004 ft | 385 kts | 351° |
| 2026-05-05 15:59 | 39.65507 | -7.98416 | 30001 ft | 375 kts | 350° |
| 2026-05-05 15:59 | 39.70623 | -7.98758 | 29980 ft | 355 kts | 350° |
| 2026-05-05 15:59 | 39.73028 | -7.98914 | 29953 ft | 338 kts | 349° |
| 2026-05-05 16:00 | 39.75350 | -7.99088 | 29585 ft | 330 kts | 348° |
| 2026-05-05 16:00 | 39.77621 | -7.99319 | 28923 ft | 331 kts | 348° |
| 2026-05-05 16:00 | 39.79969 | -7.99589 | 27847 ft | 345 kts | 348° |
| 2026-05-05 16:00 | 39.82308 | -7.99853 | 27703 ft | 336 kts | 348° |
| 2026-05-05 16:01 | 39.84636 | -8.00115 | 27395 ft | 333 kts | 348° |
| 2026-05-05 16:01 | 39.86940 | -8.00369 | 27039 ft | 332 kts | 348° |
| 2026-05-05 16:01 | 39.89235 | -8.00622 | 26706 ft | 329 kts | 348° |
| 2026-05-05 16:01 | 39.91509 | -8.00870 | 26372 ft | 327 kts | 348° |
| 2026-05-05 16:02 | 39.93767 | -8.01116 | 26053 ft | 325 kts | 348° |
| 2026-05-05 16:02 | 39.96017 | -8.01361 | 25730 ft | 324 kts | 348° |
| 2026-05-05 16:02 | 39.98257 | -8.01605 | 25423 ft | 322 kts | 348° |
| 2026-05-05 16:02 | 40.00483 | -8.01848 | 25094 ft | 321 kts | 348° |
| 2026-05-05 16:03 | 40.02707 | -8.02090 | 24763 ft | 320 kts | 348° |
| 2026-05-05 16:03 | 40.04924 | -8.02331 | 24433 ft | 319 kts | 348° |
| 2026-05-05 16:03 | 40.07101 | -8.02787 | 23943 ft | 316 kts | 336° |
| 2026-05-05 16:03 | 40.09134 | -8.03847 | 23512 ft | 314 kts | 329° |
| 2026-05-05 16:04 | 40.11092 | -8.05071 | 23146 ft | 309 kts | 329° |
| 2026-05-05 16:04 | 40.12971 | -8.06275 | 22674 ft | 304 kts | 329° |
| 2026-05-05 16:04 | 40.14870 | -8.07498 | 21757 ft | 311 kts | 329° |
| 2026-05-05 16:04 | 40.16853 | -8.08779 | 20633 ft | 325 kts | 330° |
| 2026-05-05 16:05 | 40.18906 | -8.10097 | 19470 ft | 338 kts | 331° |
| 2026-05-05 16:05 | 40.21007 | -8.11441 | 18424 ft | 343 kts | 332° |
| 2026-05-05 16:05 | 40.23187 | -8.12831 | 17112 ft | 352 kts | 332° |
| 2026-05-05 16:05 | 40.25339 | -8.14196 | 16732 ft | 336 kts | 332° |
| 2026-05-05 16:06 | 40.27395 | -8.15498 | 16322 ft | 322 kts | 332° |
| 2026-05-05 16:06 | 40.29343 | -8.16734 | 15968 ft | 309 kts | 332° |
| 2026-05-05 16:06 | 40.31257 | -8.17951 | 15631 ft | 298 kts | 332° |
| 2026-05-05 16:06 | 40.33087 | -8.19115 | 15308 ft | 287 kts | 332° |
| 2026-05-05 16:07 | 40.34854 | -8.20241 | 15012 ft | 278 kts | 332° |
| 2026-05-05 16:07 | 40.36563 | -8.21331 | 14723 ft | 269 kts | 332° |
| 2026-05-05 16:07 | 40.38235 | -8.22398 | 14442 ft | 266 kts | 332° |
| 2026-05-05 16:07 | 40.39895 | -8.23459 | 14164 ft | 265 kts | 332° |
| 2026-05-05 16:08 | 40.41555 | -8.24519 | 13869 ft | 264 kts | 333° |
| 2026-05-05 16:08 | 40.43200 | -8.25571 | 13556 ft | 263 kts | 333° |
| 2026-05-05 16:08 | 40.44844 | -8.26622 | 13238 ft | 262 kts | 333° |
| 2026-05-05 16:08 | 40.46480 | -8.27669 | 12938 ft | 261 kts | 333° |
| 2026-05-05 16:09 | 40.48105 | -8.28709 | 12663 ft | 259 kts | 333° |
| 2026-05-05 16:09 | 40.49721 | -8.29744 | 12372 ft | 258 kts | 333° |
| 2026-05-05 16:09 | 40.51330 | -8.30774 | 12098 ft | 257 kts | 333° |
| 2026-05-05 16:09 | 40.52935 | -8.31804 | 11811 ft | 256 kts | 333° |
| 2026-05-05 16:10 | 40.54531 | -8.32827 | 11533 ft | 255 kts | 333° |
| 2026-05-05 16:10 | 40.56123 | -8.33848 | 11254 ft | 254 kts | 333° |
| 2026-05-05 16:10 | 40.57710 | -8.34867 | 10999 ft | 253 kts | 333° |
| 2026-05-05 16:10 | 40.59288 | -8.35881 | 10718 ft | 252 kts | 333° |
| 2026-05-05 16:11 | 40.60856 | -8.36889 | 10451 ft | 252 kts | 333° |
| 2026-05-05 16:11 | 40.65469 | -8.39855 | 9812 ft | 243 kts | 333° |
| 2026-05-05 16:12 | 40.66983 | -8.40831 | 9546 ft | 241 kts | 333° |
| 2026-05-05 16:12 | 40.69961 | -8.42751 | 9011 ft | 239 kts | 333° |
| 2026-05-05 16:13 | 40.74400 | -8.45616 | 8268 ft | 235 kts | 333° |
| 2026-05-05 16:13 | 40.75862 | -8.46562 | 8021 ft | 236 kts | 333° |
| 2026-05-05 16:13 | 40.77355 | -8.47526 | 7781 ft | 242 kts | 333° |
| 2026-05-05 16:14 | 40.80417 | -8.49505 | 7250 ft | 247 kts | 334° |
| 2026-05-05 16:14 | 40.83509 | -8.51506 | 6678 ft | 249 kts | 333° |
| 2026-05-05 16:15 | 40.86604 | -8.53513 | 6096 ft | 246 kts | 333° |
| 2026-05-05 16:15 | 40.89583 | -8.55445 | 5582 ft | 232 kts | 333° |
| 2026-05-05 16:16 | 40.92382 | -8.57262 | 5300 ft | 220 kts | 333° |
| 2026-05-05 16:16 | 40.95029 | -8.58983 | 5130 ft | 201 kts | 333° |
| 2026-05-05 16:17 | 40.97372 | -8.60506 | 4947 ft | 179 kts | 333° |
| 2026-05-05 16:17 | 40.98480 | -8.61208 | 4773 ft | 172 kts | 338° |
| 2026-05-05 16:18 | 41.00701 | -8.61845 | 4416 ft | 159 kts | 346° |
| 2026-05-05 16:18 | 41.01822 | -8.62127 | 4237 ft | 161 kts | 346° |
| 2026-05-05 16:18 | 41.04089 | -8.62715 | 3878 ft | 171 kts | 346° |
| 2026-05-05 16:19 | 41.05249 | -8.63021 | 3685 ft | 170 kts | 346° |
| 2026-05-05 16:19 | 41.06400 | -8.63322 | 3476 ft | 167 kts | 345° |
| 2026-05-05 16:19 | 41.08627 | -8.63898 | 3117 ft | 163 kts | 346° |
| 2026-05-05 16:20 | 41.10921 | -8.64494 | 2685 ft | 169 kts | 346° |
| 2026-05-05 16:20 | 41.13175 | -8.65072 | 2238 ft | 163 kts | 345° |
| 2026-05-05 16:21 | 41.15439 | -8.65641 | 1824 ft | 166 kts | 344° |
| 2026-05-05 16:22 | 41.18754 | -8.66514 | 1150 ft | 151 kts | 345° |
| 2026-05-05 16:22 | 41.20450 | -8.66974 | 879 ft | 139 kts | 347° |
| 2026-05-05 16:23 | 41.22329 | -8.67485 | 524 ft | 138 kts | 345° |
| 2026-05-05 16:23 | 41.23276 | -8.67725 | 292 ft | 138 kts | 345° |
| 2026-05-05 16:23 | 41.24686 | -8.68097 | 201 ft | 47 kts | 349° |
| 2026-05-05 16:24 | 41.24949 | -8.68162 | 191 ft | 37 kts | 349° |
| 2026-05-05 16:24 | 41.25201 | -8.68137 | 181 ft | 36 kts | 17° |
| 2026-05-05 16:24 | 41.25233 | -8.68007 | 183 ft | 14 kts | 168° |
| 2026-05-05 16:25 | 41.25110 | -8.67974 | 189 ft | 13 kts | 168° |
| 2026-05-05 16:25 | 41.24964 | -8.67935 | 193 ft | 13 kts | 168° |
| 2026-05-05 16:25 | 41.24881 | -8.67908 | 203 ft | 12 kts | 153° |
| 2026-05-05 16:26 | 41.24730 | -8.67820 | 209 ft | 12 kts | 169° |
| 2026-05-05 16:26 | 41.24576 | -8.67780 | 218 ft | 11 kts | 168° |
| 2026-05-05 16:27 | 41.24495 | -8.67759 | 219 ft | 13 kts | 169° |
| 2026-05-05 16:27 | 41.24411 | -8.67737 | 224 ft | 12 kts | 169° |
| 2026-05-05 16:27 | 41.24328 | -8.67714 | 228 ft | 12 kts | 163° |
| 2026-05-05 16:27 | 41.24267 | -8.67643 | 233 ft | 12 kts | 126° |
| 2026-05-05 16:28 | 41.24212 | -8.67555 | 237 ft | 14 kts | 146° |
| 2026-05-05 16:28 | 41.24143 | -8.67468 | 240 ft | 14 kts | 150° |
| 2026-05-05 16:28 | 41.24056 | -8.67425 | 241 ft | 13 kts | 170° |
| 2026-05-05 16:28 | 41.23984 | -8.67418 | 241 ft | 9 kts | 166° |
| 2026-05-05 16:29 | 41.23945 | -8.67362 | 243 ft | 5 kts | 123° |
| 2026-05-05 16:29 | 41.23929 | -8.67331 | 244 ft | 2 kts | 124° |
| 2026-05-05 16:29 | 41.23926 | -8.67324 | 244 ft | 0 kts | 124° |